sensor_id;sensor_type;location;lat;lon;timestamp;P1;durP1;ratioP1;P2;durP2;ratioP2
3991;SDS011;2010;48.194;16.394;2022-07-05T00:02:21;3.20;;;2.90;;
3991;SDS011;2010;48.194;16.394;2022-07-05T00:04:53;3.70;;;3.40;;
3991;SDS011;2010;48.194;16.394;2022-07-05T00:07:26;3.10;;;2.90;;
3991;SDS011;2010;48.194;16.394;2022-07-05T00:10:00;3.07;;;2.87;;
3991;SDS011;2010;48.194;16.394;2022-07-05T00:12:31;2.90;;;2.70;;
3991;SDS011;2010;48.194;16.394;2022-07-05T00:15:04;4.07;;;3.10;;
3991;SDS011;2010;48.194;16.394;2022-07-05T00:17:41;2.90;;;2.70;;
3991;SDS011;2010;48.194;16.394;2022-07-05T00:20:12;3.80;;;3.47;;
3991;SDS011;2010;48.194;16.394;2022-07-05T00:22:44;3.53;;;2.97;;
3991;SDS011;2010;48.194;16.394;2022-07-05T00:25:17;4.50;;;3.10;;
3991;SDS011;2010;48.194;16.394;2022-07-05T00:27:45;4.37;;;3.30;;
3991;SDS011;2010;48.194;16.394;2022-07-05T00:30:20;5.57;;;4.07;;
3991;SDS011;2010;48.194;16.394;2022-07-05T00:32:52;7.40;;;3.50;;
3991;SDS011;2010;48.194;16.394;2022-07-05T00:35:24;3.30;;;3.00;;
3991;SDS011;2010;48.194;16.394;2022-07-05T00:37:57;5.13;;;3.57;;
3991;SDS011;2010;48.194;16.394;2022-07-05T00:40:36;4.43;;;3.67;;
3991;SDS011;2010;48.194;16.394;2022-07-05T00:43:13;5.17;;;3.47;;
3991;SDS011;2010;48.194;16.394;2022-07-05T00:45:46;5.27;;;3.57;;
3991;SDS011;2010;48.194;16.394;2022-07-05T00:48:21;3.90;;;3.20;;
3991;SDS011;2010;48.194;16.394;2022-07-05T00:50:52;4.60;;;4.13;;
3991;SDS011;2010;48.194;16.394;2022-07-05T00:53:40;4.07;;;3.77;;
3991;SDS011;2010;48.194;16.394;2022-07-05T00:56:10;3.70;;;3.37;;
3991;SDS011;2010;48.194;16.394;2022-07-05T00:58:43;5.00;;;3.30;;
3991;SDS011;2010;48.194;16.394;2022-07-05T01:01:14;3.93;;;2.73;;
3991;SDS011;2010;48.194;16.394;2022-07-05T01:06:42;3.83;;;3.50;;
3991;SDS011;2010;48.194;16.394;2022-07-05T01:09:15;3.57;;;3.10;;
3991;SDS011;2010;48.194;16.394;2022-07-05T01:11:47;4.10;;;3.20;;
3991;SDS011;2010;48.194;16.394;2022-07-05T01:14:24;4.30;;;3.83;;
3991;SDS011;2010;48.194;16.394;2022-07-05T01:16:57;3.60;;;3.30;;
3991;SDS011;2010;48.194;16.394;2022-07-05T01:19:38;3.07;;;2.87;;
3991;SDS011;2010;48.194;16.394;2022-07-05T01:22:16;2.93;;;2.73;;
3991;SDS011;2010;48.194;16.394;2022-07-05T01:25:14;4.27;;;2.90;;
3991;SDS011;2010;48.194;16.394;2022-07-05T01:27:44;2.50;;;2.40;;
3991;SDS011;2010;48.194;16.394;2022-07-05T01:30:14;2.80;;;2.57;;
3991;SDS011;2010;48.194;16.394;2022-07-05T01:32:47;2.80;;;2.60;;
3991;SDS011;2010;48.194;16.394;2022-07-05T01:35:18;2.97;;;2.77;;
3991;SDS011;2010;48.194;16.394;2022-07-05T01:38:01;2.43;;;2.20;;
3991;SDS011;2010;48.194;16.394;2022-07-05T01:40:31;2.10;;;2.00;;
3991;SDS011;2010;48.194;16.394;2022-07-05T01:43:02;2.90;;;2.70;;
3991;SDS011;2010;48.194;16.394;2022-07-05T01:45:32;2.33;;;2.10;;
3991;SDS011;2010;48.194;16.394;2022-07-05T01:48:13;2.37;;;2.17;;
3991;SDS011;2010;48.194;16.394;2022-07-05T01:50:48;2.40;;;2.30;;
3991;SDS011;2010;48.194;16.394;2022-07-05T01:53:33;2.43;;;2.23;;
3991;SDS011;2010;48.194;16.394;2022-07-05T01:56:11;2.33;;;2.23;;
3991;SDS011;2010;48.194;16.394;2022-07-05T01:58:52;2.40;;;2.30;;
3991;SDS011;2010;48.194;16.394;2022-07-05T02:01:38;2.37;;;2.27;;
3991;SDS011;2010;48.194;16.394;2022-07-05T02:04:15;2.50;;;2.30;;
3991;SDS011;2010;48.194;16.394;2022-07-05T02:06:57;2.30;;;2.10;;
3991;SDS011;2010;48.194;16.394;2022-07-05T02:09:43;2.50;;;2.30;;
3991;SDS011;2010;48.194;16.394;2022-07-05T02:12:17;2.33;;;2.23;;
3991;SDS011;2010;48.194;16.394;2022-07-05T02:14:52;2.47;;;2.27;;
3991;SDS011;2010;48.194;16.394;2022-07-05T02:17:21;2.13;;;1.93;;
3991;SDS011;2010;48.194;16.394;2022-07-05T02:19:53;2.37;;;2.20;;
3991;SDS011;2010;48.194;16.394;2022-07-05T02:22:27;2.27;;;2.13;;
3991;SDS011;2010;48.194;16.394;2022-07-05T02:25:01;3.00;;;2.43;;
3991;SDS011;2010;48.194;16.394;2022-07-05T02:27:41;2.90;;;2.10;;
3991;SDS011;2010;48.194;16.394;2022-07-05T02:30:13;2.73;;;2.33;;
3991;SDS011;2010;48.194;16.394;2022-07-05T02:32:48;2.20;;;2.10;;
3991;SDS011;2010;48.194;16.394;2022-07-05T02:35:30;2.87;;;2.63;;
3991;SDS011;2010;48.194;16.394;2022-07-05T02:38:04;2.30;;;2.20;;
3991;SDS011;2010;48.194;16.394;2022-07-05T02:40:43;2.80;;;2.60;;
3991;SDS011;2010;48.194;16.394;2022-07-05T02:43:13;2.60;;;2.40;;
3991;SDS011;2010;48.194;16.394;2022-07-05T02:45:52;2.67;;;2.50;;
3991;SDS011;2010;48.194;16.394;2022-07-05T02:48:24;5.20;;;2.60;;
3991;SDS011;2010;48.194;16.394;2022-07-05T02:50:58;3.10;;;2.10;;
3991;SDS011;2010;48.194;16.394;2022-07-05T02:53:29;2.60;;;2.30;;
3991;SDS011;2010;48.194;16.394;2022-07-05T02:56:28;2.83;;;2.63;;
3991;SDS011;2010;48.194;16.394;2022-07-05T02:58:58;2.80;;;2.50;;
3991;SDS011;2010;48.194;16.394;2022-07-05T03:01:36;2.30;;;2.00;;
3991;SDS011;2010;48.194;16.394;2022-07-05T03:04:16;4.17;;;2.43;;
3991;SDS011;2010;48.194;16.394;2022-07-05T03:06:52;2.87;;;1.83;;
3991;SDS011;2010;48.194;16.394;2022-07-05T03:09:29;2.43;;;2.33;;
3991;SDS011;2010;48.194;16.394;2022-07-05T03:12:18;2.10;;;2.00;;
3991;SDS011;2010;48.194;16.394;2022-07-05T03:14:50;2.27;;;2.07;;
3991;SDS011;2010;48.194;16.394;2022-07-05T03:17:25;2.20;;;2.10;;
3991;SDS011;2010;48.194;16.394;2022-07-05T03:19:58;2.60;;;2.40;;
3991;SDS011;2010;48.194;16.394;2022-07-05T03:22:30;3.07;;;2.87;;
3991;SDS011;2010;48.194;16.394;2022-07-05T03:25:07;2.33;;;2.17;;
3991;SDS011;2010;48.194;16.394;2022-07-05T03:27:50;2.17;;;2.07;;
3991;SDS011;2010;48.194;16.394;2022-07-05T03:30:20;2.57;;;2.37;;
3991;SDS011;2010;48.194;16.394;2022-07-05T03:32:54;3.90;;;2.77;;
3991;SDS011;2010;48.194;16.394;2022-07-05T03:35:35;2.57;;;2.43;;
3991;SDS011;2010;48.194;16.394;2022-07-05T03:38:05;2.97;;;2.67;;
3991;SDS011;2010;48.194;16.394;2022-07-05T03:40:44;3.10;;;2.47;;
3991;SDS011;2010;48.194;16.394;2022-07-05T03:43:37;2.80;;;2.60;;
3991;SDS011;2010;48.194;16.394;2022-07-05T03:46:10;2.70;;;2.50;;
3991;SDS011;2010;48.194;16.394;2022-07-05T03:48:46;2.80;;;2.60;;
3991;SDS011;2010;48.194;16.394;2022-07-05T03:51:18;4.47;;;2.90;;
3991;SDS011;2010;48.194;16.394;2022-07-05T03:53:53;2.40;;;2.20;;
3991;SDS011;2010;48.194;16.394;2022-07-05T03:56:29;2.40;;;2.30;;
3991;SDS011;2010;48.194;16.394;2022-07-05T03:59:09;3.10;;;2.90;;
3991;SDS011;2010;48.194;16.394;2022-07-05T04:01:41;4.70;;;2.90;;
3991;SDS011;2010;48.194;16.394;2022-07-05T04:04:14;3.80;;;2.77;;
3991;SDS011;2010;48.194;16.394;2022-07-05T04:06:53;3.23;;;3.03;;
3991;SDS011;2010;48.194;16.394;2022-07-05T04:09:28;4.03;;;3.60;;
3991;SDS011;2010;48.194;16.394;2022-07-05T04:12:05;4.50;;;3.10;;
3991;SDS011;2010;48.194;16.394;2022-07-05T04:14:40;3.70;;;3.40;;
3991;SDS011;2010;48.194;16.394;2022-07-05T04:17:17;3.63;;;2.87;;
3991;SDS011;2010;48.194;16.394;2022-07-05T04:19:47;6.00;;;2.37;;
3991;SDS011;2010;48.194;16.394;2022-07-05T04:22:18;2.43;;;2.20;;
3991;SDS011;2010;48.194;16.394;2022-07-05T04:24:54;3.43;;;2.70;;
3991;SDS011;2010;48.194;16.394;2022-07-05T04:28:09;2.87;;;2.70;;
3991;SDS011;2010;48.194;16.394;2022-07-05T04:30:46;3.23;;;2.20;;
3991;SDS011;2010;48.194;16.394;2022-07-05T04:33:19;2.50;;;2.30;;
3991;SDS011;2010;48.194;16.394;2022-07-05T04:36:10;3.03;;;2.40;;
3991;SDS011;2010;48.194;16.394;2022-07-05T04:38:49;2.20;;;2.10;;
3991;SDS011;2010;48.194;16.394;2022-07-05T04:41:20;2.17;;;1.97;;
3991;SDS011;2010;48.194;16.394;2022-07-05T04:43:59;2.00;;;1.87;;
3991;SDS011;2010;48.194;16.394;2022-07-05T04:46:44;4.33;;;2.00;;
3991;SDS011;2010;48.194;16.394;2022-07-05T04:49:13;3.43;;;2.80;;
3991;SDS011;2010;48.194;16.394;2022-07-05T04:51:52;2.60;;;2.40;;
3991;SDS011;2010;48.194;16.394;2022-07-05T04:54:28;2.00;;;1.90;;
3991;SDS011;2010;48.194;16.394;2022-07-05T04:57:02;2.10;;;2.00;;
3991;SDS011;2010;48.194;16.394;2022-07-05T04:59:38;5.80;;;1.90;;
3991;SDS011;2010;48.194;16.394;2022-07-05T05:02:21;2.10;;;2.00;;
3991;SDS011;2010;48.194;16.394;2022-07-05T05:04:53;3.13;;;2.27;;
3991;SDS011;2010;48.194;16.394;2022-07-05T05:07:27;1.80;;;1.70;;
3991;SDS011;2010;48.194;16.394;2022-07-05T05:10:07;4.00;;;2.50;;
3991;SDS011;2010;48.194;16.394;2022-07-05T05:12:38;3.33;;;2.70;;
3991;SDS011;2010;48.194;16.394;2022-07-05T05:15:14;7.50;;;2.13;;
3991;SDS011;2010;48.194;16.394;2022-07-05T05:17:59;2.70;;;2.50;;
3991;SDS011;2010;48.194;16.394;2022-07-05T05:20:39;3.87;;;2.67;;
3991;SDS011;2010;48.194;16.394;2022-07-05T05:23:10;4.83;;;3.30;;
3991;SDS011;2010;48.194;16.394;2022-07-05T05:25:48;3.13;;;2.80;;
3991;SDS011;2010;48.194;16.394;2022-07-05T05:28:28;3.33;;;2.80;;
3991;SDS011;2010;48.194;16.394;2022-07-05T05:31:00;2.90;;;2.70;;
3991;SDS011;2010;48.194;16.394;2022-07-05T05:33:36;6.20;;;4.37;;
3991;SDS011;2010;48.194;16.394;2022-07-05T05:36:12;5.50;;;3.30;;
3991;SDS011;2010;48.194;16.394;2022-07-05T05:38:51;5.57;;;3.70;;
3991;SDS011;2010;48.194;16.394;2022-07-05T05:41:25;8.73;;;4.30;;
3991;SDS011;2010;48.194;16.394;2022-07-05T05:43:56;4.03;;;3.33;;
3991;SDS011;2010;48.194;16.394;2022-07-05T05:46:37;2.93;;;2.57;;
3991;SDS011;2010;48.194;16.394;2022-07-05T05:49:24;7.73;;;3.60;;
3991;SDS011;2010;48.194;16.394;2022-07-05T05:52:00;6.13;;;3.57;;
3991;SDS011;2010;48.194;16.394;2022-07-05T05:54:32;5.13;;;4.00;;
3991;SDS011;2010;48.194;16.394;2022-07-05T05:57:07;6.07;;;4.07;;
3991;SDS011;2010;48.194;16.394;2022-07-05T05:59:37;6.90;;;5.63;;
3991;SDS011;2010;48.194;16.394;2022-07-05T06:02:24;9.43;;;6.40;;
3991;SDS011;2010;48.194;16.394;2022-07-05T06:05:05;8.97;;;6.57;;
3991;SDS011;2010;48.194;16.394;2022-07-05T06:07:46;6.10;;;4.77;;
3991;SDS011;2010;48.194;16.394;2022-07-05T06:10:28;7.10;;;3.90;;
3991;SDS011;2010;48.194;16.394;2022-07-05T06:13:00;15.40;;;5.30;;
3991;SDS011;2010;48.194;16.394;2022-07-05T06:15:47;5.67;;;4.40;;
3991;SDS011;2010;48.194;16.394;2022-07-05T06:18:32;5.93;;;3.67;;
3991;SDS011;2010;48.194;16.394;2022-07-05T06:21:17;5.87;;;4.03;;
3991;SDS011;2010;48.194;16.394;2022-07-05T06:23:48;6.50;;;4.50;;
3991;SDS011;2010;48.194;16.394;2022-07-05T06:26:18;4.80;;;3.00;;
3991;SDS011;2010;48.194;16.394;2022-07-05T06:28:54;2.53;;;2.33;;
3991;SDS011;2010;48.194;16.394;2022-07-05T06:31:28;2.70;;;2.50;;
3991;SDS011;2010;48.194;16.394;2022-07-05T06:33:59;4.97;;;2.67;;
3991;SDS011;2010;48.194;16.394;2022-07-05T06:36:36;2.60;;;2.40;;
3991;SDS011;2010;48.194;16.394;2022-07-05T06:39:07;5.57;;;2.47;;
3991;SDS011;2010;48.194;16.394;2022-07-05T06:41:40;3.23;;;2.83;;
3991;SDS011;2010;48.194;16.394;2022-07-05T06:44:18;3.20;;;2.93;;
3991;SDS011;2010;48.194;16.394;2022-07-05T06:47:03;3.63;;;3.10;;
3991;SDS011;2010;48.194;16.394;2022-07-05T06:49:40;8.93;;;5.27;;
3991;SDS011;2010;48.194;16.394;2022-07-05T06:52:27;7.23;;;5.20;;
3991;SDS011;2010;48.194;16.394;2022-07-05T06:54:56;7.43;;;5.67;;
3991;SDS011;2010;48.194;16.394;2022-07-05T06:57:31;4.40;;;3.87;;
3991;SDS011;2010;48.194;16.394;2022-07-05T07:00:05;4.90;;;2.73;;
3991;SDS011;2010;48.194;16.394;2022-07-05T07:03:03;6.63;;;4.07;;
3991;SDS011;2010;48.194;16.394;2022-07-05T07:05:58;2.73;;;2.53;;
3991;SDS011;2010;48.194;16.394;2022-07-05T07:08:32;3.20;;;2.40;;
3991;SDS011;2010;48.194;16.394;2022-07-05T07:11:43;2.90;;;2.23;;
3991;SDS011;2010;48.194;16.394;2022-07-05T07:14:23;2.27;;;2.17;;
3991;SDS011;2010;48.194;16.394;2022-07-05T07:17:12;3.30;;;2.70;;
3991;SDS011;2010;48.194;16.394;2022-07-05T07:19:41;2.37;;;2.27;;
3991;SDS011;2010;48.194;16.394;2022-07-05T07:22:14;2.60;;;2.40;;
3991;SDS011;2010;48.194;16.394;2022-07-05T07:24:45;2.97;;;2.77;;
3991;SDS011;2010;48.194;16.394;2022-07-05T07:27:19;4.60;;;3.40;;
3991;SDS011;2010;48.194;16.394;2022-07-05T07:29:57;5.77;;;3.67;;
3991;SDS011;2010;48.194;16.394;2022-07-05T07:32:38;5.07;;;3.70;;
3991;SDS011;2010;48.194;16.394;2022-07-05T07:35:16;2.40;;;2.10;;
3991;SDS011;2010;48.194;16.394;2022-07-05T07:37:47;3.00;;;2.77;;
3991;SDS011;2010;48.194;16.394;2022-07-05T07:40:24;2.70;;;2.50;;
3991;SDS011;2010;48.194;16.394;2022-07-05T07:42:56;10.70;;;6.57;;
3991;SDS011;2010;48.194;16.394;2022-07-05T07:45:25;3.20;;;2.67;;
3991;SDS011;2010;48.194;16.394;2022-07-05T07:47:59;2.40;;;2.20;;
3991;SDS011;2010;48.194;16.394;2022-07-05T07:50:33;2.87;;;2.47;;
3991;SDS011;2010;48.194;16.394;2022-07-05T07:53:10;6.57;;;3.77;;
3991;SDS011;2010;48.194;16.394;2022-07-05T07:55:50;2.97;;;2.77;;
3991;SDS011;2010;48.194;16.394;2022-07-05T07:58:19;2.60;;;1.93;;
3991;SDS011;2010;48.194;16.394;2022-07-05T08:00:55;4.77;;;1.80;;
3991;SDS011;2010;48.194;16.394;2022-07-05T08:03:30;1.80;;;1.70;;
3991;SDS011;2010;48.194;16.394;2022-07-05T08:06:10;2.20;;;2.10;;
3991;SDS011;2010;48.194;16.394;2022-07-05T08:08:50;4.00;;;1.80;;
3991;SDS011;2010;48.194;16.394;2022-07-05T08:11:43;1.20;;;1.20;;
3991;SDS011;2010;48.194;16.394;2022-07-05T08:14:15;2.20;;;1.40;;
3991;SDS011;2010;48.194;16.394;2022-07-05T08:16:56;2.20;;;1.60;;
3991;SDS011;2010;48.194;16.394;2022-07-05T08:19:25;4.60;;;1.77;;
3991;SDS011;2010;48.194;16.394;2022-07-05T08:22:14;2.23;;;1.30;;
3991;SDS011;2010;48.194;16.394;2022-07-05T08:24:49;1.90;;;1.10;;
3991;SDS011;2010;48.194;16.394;2022-07-05T08:27:33;1.43;;;1.30;;
3991;SDS011;2010;48.194;16.394;2022-07-05T08:30:05;1.37;;;1.23;;
3991;SDS011;2010;48.194;16.394;2022-07-05T08:32:39;3.13;;;1.60;;
3991;SDS011;2010;48.194;16.394;2022-07-05T08:35:08;2.30;;;1.40;;
3991;SDS011;2010;48.194;16.394;2022-07-05T08:37:38;1.50;;;1.40;;
3991;SDS011;2010;48.194;16.394;2022-07-05T08:40:09;1.63;;;1.53;;
3991;SDS011;2010;48.194;16.394;2022-07-05T08:42:44;1.40;;;1.30;;
3991;SDS011;2010;48.194;16.394;2022-07-05T08:45:17;1.30;;;1.30;;
3991;SDS011;2010;48.194;16.394;2022-07-05T08:47:49;1.77;;;1.40;;
3991;SDS011;2010;48.194;16.394;2022-07-05T08:50:33;1.53;;;1.47;;
3991;SDS011;2010;48.194;16.394;2022-07-05T08:53:05;1.70;;;1.60;;
3991;SDS011;2010;48.194;16.394;2022-07-05T08:55:42;1.87;;;1.77;;
3991;SDS011;2010;48.194;16.394;2022-07-05T08:58:15;1.50;;;1.40;;
3991;SDS011;2010;48.194;16.394;2022-07-05T09:00:55;2.50;;;2.00;;
3991;SDS011;2010;48.194;16.394;2022-07-05T09:03:27;1.87;;;1.57;;
3991;SDS011;2010;48.194;16.394;2022-07-05T09:06:00;1.73;;;1.50;;
3991;SDS011;2010;48.194;16.394;2022-07-05T09:08:38;2.40;;;1.67;;
3991;SDS011;2010;48.194;16.394;2022-07-05T09:11:15;1.60;;;1.50;;
3991;SDS011;2010;48.194;16.394;2022-07-05T09:14:07;1.70;;;1.60;;
3991;SDS011;2010;48.194;16.394;2022-07-05T09:16:54;5.00;;;1.97;;
3991;SDS011;2010;48.194;16.394;2022-07-05T09:19:24;1.80;;;1.73;;
3991;SDS011;2010;48.194;16.394;2022-07-05T09:22:10;2.33;;;2.00;;
3991;SDS011;2010;48.194;16.394;2022-07-05T09:24:43;1.60;;;1.60;;
3991;SDS011;2010;48.194;16.394;2022-07-05T09:27:22;2.13;;;1.97;;
3991;SDS011;2010;48.194;16.394;2022-07-05T09:29:57;1.90;;;1.80;;
3991;SDS011;2010;48.194;16.394;2022-07-05T09:32:32;3.13;;;1.83;;
3991;SDS011;2010;48.194;16.394;2022-07-05T09:35:18;1.80;;;1.70;;
3991;SDS011;2010;48.194;16.394;2022-07-05T09:37:51;2.23;;;2.13;;
3991;SDS011;2010;48.194;16.394;2022-07-05T09:40:26;2.10;;;2.00;;
3991;SDS011;2010;48.194;16.394;2022-07-05T09:45:57;4.20;;;2.20;;
3991;SDS011;2010;48.194;16.394;2022-07-05T09:48:32;2.67;;;1.73;;
3991;SDS011;2010;48.194;16.394;2022-07-05T09:51:11;4.70;;;1.90;;
3991;SDS011;2010;48.194;16.394;2022-07-05T09:54:13;1.40;;;1.40;;
3991;SDS011;2010;48.194;16.394;2022-07-05T09:56:46;1.90;;;1.70;;
3991;SDS011;2010;48.194;16.394;2022-07-05T09:59:25;4.63;;;1.57;;
3991;SDS011;2010;48.194;16.394;2022-07-05T10:02:28;1.83;;;1.40;;
3991;SDS011;2010;48.194;16.394;2022-07-05T10:05:13;5.17;;;1.90;;
3991;SDS011;2010;48.194;16.394;2022-07-05T10:07:54;1.73;;;1.63;;
3991;SDS011;2010;48.194;16.394;2022-07-05T10:10:26;4.10;;;1.93;;
3991;SDS011;2010;48.194;16.394;2022-07-05T10:12:58;1.70;;;1.50;;
3991;SDS011;2010;48.194;16.394;2022-07-05T10:15:36;1.53;;;1.53;;
3991;SDS011;2010;48.194;16.394;2022-07-05T10:18:12;2.13;;;2.03;;
3991;SDS011;2010;48.194;16.394;2022-07-05T10:20:48;2.60;;;2.07;;
3991;SDS011;2010;48.194;16.394;2022-07-05T10:23:21;1.83;;;1.70;;
3991;SDS011;2010;48.194;16.394;2022-07-05T10:25:52;2.10;;;1.63;;
3991;SDS011;2010;48.194;16.394;2022-07-05T10:28:40;1.73;;;1.63;;
3991;SDS011;2010;48.194;16.394;2022-07-05T10:31:15;1.80;;;1.70;;
3991;SDS011;2010;48.194;16.394;2022-07-05T10:33:52;1.77;;;1.67;;
3991;SDS011;2010;48.194;16.394;2022-07-05T10:36:23;1.90;;;1.20;;
3991;SDS011;2010;48.194;16.394;2022-07-05T10:39:02;3.40;;;2.20;;
3991;SDS011;2010;48.194;16.394;2022-07-05T10:41:40;2.10;;;1.90;;
3991;SDS011;2010;48.194;16.394;2022-07-05T10:44:25;3.90;;;2.07;;
3991;SDS011;2010;48.194;16.394;2022-07-05T10:47:20;2.00;;;1.90;;
3991;SDS011;2010;48.194;16.394;2022-07-05T10:50:08;4.93;;;2.20;;
3991;SDS011;2010;48.194;16.394;2022-07-05T10:52:38;2.30;;;2.20;;
3991;SDS011;2010;48.194;16.394;2022-07-05T10:55:42;3.00;;;2.80;;
3991;SDS011;2010;48.194;16.394;2022-07-05T11:04:25;2.20;;;2.10;;
3991;SDS011;2010;48.194;16.394;2022-07-05T11:07:29;2.00;;;1.90;;
3991;SDS011;2010;48.194;16.394;2022-07-05T11:10:42;2.50;;;2.30;;
3991;SDS011;2010;48.194;16.394;2022-07-05T11:13:58;4.30;;;2.30;;
3991;SDS011;2010;48.194;16.394;2022-07-05T11:16:37;2.77;;;2.23;;
3991;SDS011;2010;48.194;16.394;2022-07-05T11:19:07;2.10;;;2.00;;
3991;SDS011;2010;48.194;16.394;2022-07-05T11:24:37;2.97;;;2.33;;
3991;SDS011;2010;48.194;16.394;2022-07-05T11:27:15;3.53;;;2.03;;
3991;SDS011;2010;48.194;16.394;2022-07-05T11:29:50;2.83;;;2.27;;
3991;SDS011;2010;48.194;16.394;2022-07-05T11:32:23;2.20;;;2.00;;
3991;SDS011;2010;48.194;16.394;2022-07-05T11:35:13;2.67;;;2.57;;
3991;SDS011;2010;48.194;16.394;2022-07-05T11:38:02;2.33;;;2.10;;
3991;SDS011;2010;48.194;16.394;2022-07-05T11:40:58;2.30;;;2.10;;
3991;SDS011;2010;48.194;16.394;2022-07-05T11:46:30;3.40;;;2.50;;
3991;SDS011;2010;48.194;16.394;2022-07-05T11:49:29;2.70;;;2.60;;
3991;SDS011;2010;48.194;16.394;2022-07-05T11:52:02;2.30;;;2.20;;
3991;SDS011;2010;48.194;16.394;2022-07-05T11:54:50;4.00;;;2.40;;
3991;SDS011;2010;48.194;16.394;2022-07-05T11:57:34;2.63;;;2.50;;
3991;SDS011;2010;48.194;16.394;2022-07-05T12:00:09;4.33;;;2.90;;
3991;SDS011;2010;48.194;16.394;2022-07-05T12:02:56;3.20;;;2.43;;
3991;SDS011;2010;48.194;16.394;2022-07-05T12:05:31;4.33;;;2.67;;
3991;SDS011;2010;48.194;16.394;2022-07-05T12:08:10;2.83;;;2.53;;
3991;SDS011;2010;48.194;16.394;2022-07-05T12:10:45;5.23;;;2.43;;
3991;SDS011;2010;48.194;16.394;2022-07-05T12:13:47;2.43;;;2.33;;
3991;SDS011;2010;48.194;16.394;2022-07-05T12:16:18;2.83;;;2.63;;
3991;SDS011;2010;48.194;16.394;2022-07-05T12:18:55;3.10;;;2.90;;
3991;SDS011;2010;48.194;16.394;2022-07-05T12:21:32;2.40;;;2.30;;
3991;SDS011;2010;48.194;16.394;2022-07-05T12:24:06;3.90;;;3.17;;
3991;SDS011;2010;48.194;16.394;2022-07-05T12:26:37;2.77;;;2.50;;
3991;SDS011;2010;48.194;16.394;2022-07-05T12:29:28;2.33;;;2.23;;
3991;SDS011;2010;48.194;16.394;2022-07-05T12:32:00;2.50;;;2.40;;
3991;SDS011;2010;48.194;16.394;2022-07-05T12:34:39;2.83;;;2.67;;
3991;SDS011;2010;48.194;16.394;2022-07-05T12:37:19;3.10;;;2.63;;
3991;SDS011;2010;48.194;16.394;2022-07-05T12:40:01;4.97;;;2.17;;
3991;SDS011;2010;48.194;16.394;2022-07-05T12:42:40;3.20;;;2.30;;
3991;SDS011;2010;48.194;16.394;2022-07-05T12:45:15;5.17;;;2.50;;
3991;SDS011;2010;48.194;16.394;2022-07-05T12:47:52;3.13;;;3.00;;
3991;SDS011;2010;48.194;16.394;2022-07-05T12:50:43;2.73;;;2.53;;
3991;SDS011;2010;48.194;16.394;2022-07-05T12:53:47;3.03;;;2.57;;
3991;SDS011;2010;48.194;16.394;2022-07-05T12:56:38;3.60;;;2.97;;
3991;SDS011;2010;48.194;16.394;2022-07-05T12:59:58;2.83;;;2.53;;
3991;SDS011;2010;48.194;16.394;2022-07-05T13:02:37;3.20;;;3.00;;
3991;SDS011;2010;48.194;16.394;2022-07-05T13:05:18;3.13;;;2.93;;
3991;SDS011;2010;48.194;16.394;2022-07-05T13:07:54;4.10;;;2.57;;
3991;SDS011;2010;48.194;16.394;2022-07-05T13:10:34;3.40;;;3.10;;
3991;SDS011;2010;48.194;16.394;2022-07-05T13:13:07;4.50;;;2.93;;
3991;SDS011;2010;48.194;16.394;2022-07-05T13:15:46;3.63;;;3.33;;
3991;SDS011;2010;48.194;16.394;2022-07-05T13:18:35;3.00;;;2.90;;
3991;SDS011;2010;48.194;16.394;2022-07-05T13:21:26;3.07;;;2.87;;
3991;SDS011;2010;48.194;16.394;2022-07-05T13:24:06;2.77;;;2.67;;
3991;SDS011;2010;48.194;16.394;2022-07-05T13:26:43;2.53;;;2.33;;
3991;SDS011;2010;48.194;16.394;2022-07-05T13:29:14;2.40;;;2.30;;
3991;SDS011;2010;48.194;16.394;2022-07-05T13:32:00;3.10;;;2.93;;
3991;SDS011;2010;48.194;16.394;2022-07-05T13:34:35;3.00;;;2.90;;
3991;SDS011;2010;48.194;16.394;2022-07-05T13:37:09;2.77;;;2.67;;
3991;SDS011;2010;48.194;16.394;2022-07-05T13:39:45;3.13;;;2.93;;
3991;SDS011;2010;48.194;16.394;2022-07-05T13:42:19;2.67;;;2.57;;
3991;SDS011;2010;48.194;16.394;2022-07-05T13:44:51;2.90;;;2.80;;
3991;SDS011;2010;48.194;16.394;2022-07-05T13:47:31;2.60;;;2.50;;
3991;SDS011;2010;48.194;16.394;2022-07-05T13:50:04;10.57;;;4.53;;
3991;SDS011;2010;48.194;16.394;2022-07-05T13:52:51;3.50;;;3.20;;
3991;SDS011;2010;48.194;16.394;2022-07-05T13:55:23;2.97;;;2.77;;
3991;SDS011;2010;48.194;16.394;2022-07-05T13:57:58;2.90;;;2.80;;
3991;SDS011;2010;48.194;16.394;2022-07-05T14:00:28;4.03;;;3.30;;
3991;SDS011;2010;48.194;16.394;2022-07-05T14:03:07;3.27;;;3.07;;
3991;SDS011;2010;48.194;16.394;2022-07-05T14:05:41;3.10;;;2.90;;
3991;SDS011;2010;48.194;16.394;2022-07-05T14:08:19;2.93;;;2.70;;
3991;SDS011;2010;48.194;16.394;2022-07-05T14:11:08;3.03;;;2.93;;
3991;SDS011;2010;48.194;16.394;2022-07-05T14:13:47;2.90;;;2.80;;
3991;SDS011;2010;48.194;16.394;2022-07-05T14:16:23;3.27;;;3.17;;
3991;SDS011;2010;48.194;16.394;2022-07-05T14:18:58;3.13;;;3.03;;
3991;SDS011;2010;48.194;16.394;2022-07-05T14:21:42;2.77;;;2.57;;
3991;SDS011;2010;48.194;16.394;2022-07-05T14:24:16;3.67;;;3.47;;
3991;SDS011;2010;48.194;16.394;2022-07-05T14:26:48;2.77;;;2.67;;
3991;SDS011;2010;48.194;16.394;2022-07-05T14:29:19;3.43;;;2.90;;
3991;SDS011;2010;48.194;16.394;2022-07-05T14:31:54;3.23;;;3.03;;
3991;SDS011;2010;48.194;16.394;2022-07-05T14:34:30;3.57;;;3.07;;
3991;SDS011;2010;48.194;16.394;2022-07-05T14:37:25;3.20;;;3.00;;
3991;SDS011;2010;48.194;16.394;2022-07-05T14:40:03;2.93;;;2.73;;
3991;SDS011;2010;48.194;16.394;2022-07-05T14:42:48;5.77;;;3.63;;
3991;SDS011;2010;48.194;16.394;2022-07-05T14:45:16;3.30;;;3.10;;
3991;SDS011;2010;48.194;16.394;2022-07-05T14:47:57;3.67;;;3.37;;
3991;SDS011;2010;48.194;16.394;2022-07-05T14:50:30;3.90;;;3.10;;
3991;SDS011;2010;48.194;16.394;2022-07-05T14:53:04;3.67;;;3.47;;
3991;SDS011;2010;48.194;16.394;2022-07-05T14:55:41;2.93;;;2.83;;
3991;SDS011;2010;48.194;16.394;2022-07-05T14:58:24;3.17;;;3.07;;
3991;SDS011;2010;48.194;16.394;2022-07-05T15:01:06;3.80;;;3.60;;
3991;SDS011;2010;48.194;16.394;2022-07-05T15:03:42;3.97;;;3.67;;
3991;SDS011;2010;48.194;16.394;2022-07-05T15:06:13;3.87;;;3.57;;
3991;SDS011;2010;48.194;16.394;2022-07-05T15:08:52;3.70;;;3.30;;
3991;SDS011;2010;48.194;16.394;2022-07-05T15:11:28;5.50;;;3.40;;
3991;SDS011;2010;48.194;16.394;2022-07-05T15:13:59;3.70;;;3.50;;
3991;SDS011;2010;48.194;16.394;2022-07-05T15:16:36;3.83;;;3.53;;
3991;SDS011;2010;48.194;16.394;2022-07-05T15:19:19;4.97;;;4.67;;
3991;SDS011;2010;48.194;16.394;2022-07-05T15:21:51;3.93;;;3.73;;
3991;SDS011;2010;48.194;16.394;2022-07-05T15:24:25;5.53;;;5.13;;
3991;SDS011;2010;48.194;16.394;2022-07-05T15:26:59;4.40;;;4.10;;
3991;SDS011;2010;48.194;16.394;2022-07-05T15:29:45;4.03;;;3.83;;
3991;SDS011;2010;48.194;16.394;2022-07-05T15:32:23;5.10;;;4.63;;
3991;SDS011;2010;48.194;16.394;2022-07-05T15:34:58;4.20;;;3.80;;
3991;SDS011;2010;48.194;16.394;2022-07-05T15:37:29;3.70;;;3.50;;
3991;SDS011;2010;48.194;16.394;2022-07-05T15:40:09;3.87;;;3.67;;
3991;SDS011;2010;48.194;16.394;2022-07-05T15:42:40;4.83;;;4.40;;
3991;SDS011;2010;48.194;16.394;2022-07-05T15:45:13;4.30;;;4.00;;
3991;SDS011;2010;48.194;16.394;2022-07-05T15:47:48;3.77;;;3.57;;
3991;SDS011;2010;48.194;16.394;2022-07-05T15:50:18;4.07;;;3.87;;
3991;SDS011;2010;48.194;16.394;2022-07-05T15:52:53;4.30;;;3.67;;
3991;SDS011;2010;48.194;16.394;2022-07-05T15:55:33;4.40;;;3.97;;
3991;SDS011;2010;48.194;16.394;2022-07-05T15:58:11;5.23;;;4.80;;
3991;SDS011;2010;48.194;16.394;2022-07-05T16:00:45;4.70;;;4.40;;
3991;SDS011;2010;48.194;16.394;2022-07-05T16:03:19;4.90;;;4.47;;
3991;SDS011;2010;48.194;16.394;2022-07-05T16:05:59;4.60;;;4.30;;
3991;SDS011;2010;48.194;16.394;2022-07-05T16:08:31;4.00;;;3.80;;
3991;SDS011;2010;48.194;16.394;2022-07-05T16:11:02;4.30;;;4.10;;
3991;SDS011;2010;48.194;16.394;2022-07-05T16:13:39;3.87;;;3.63;;
3991;SDS011;2010;48.194;16.394;2022-07-05T16:16:21;4.10;;;3.80;;
3991;SDS011;2010;48.194;16.394;2022-07-05T16:18:54;4.63;;;4.33;;
3991;SDS011;2010;48.194;16.394;2022-07-05T16:21:30;3.57;;;3.43;;
3991;SDS011;2010;48.194;16.394;2022-07-05T16:24:01;4.80;;;4.50;;